Terminal Aerodrome Forecast
Issued by NWS

Home | Current Version | Previous Version | Graphics & Text | Print | Product List | Glossary On
Versions: 1 2 3 4 5 6 7 8 9 10 11 12 13 14 15 16
645
FTUS43 KABR 260522
TAFATY
TAF
KATY 260522Z 2606/2706 16004KT P6SM FEW110
     FM260900 25005KT P6SM SCT100
     FM261400 28011KT P6SM SCT200
     FM261700 28015G23KT P6SM FEW250
     FM270100 29009KT P6SM FEW250=

USA.gov is the U.S. government's official web portal to all federal, state and local government web resources and services.